Time;durP1;ratioP1;P1;durP2;ratioP2;P2;SDS_P1;SDS_P2;PMS_P1;PMS_P2;Temp;Humidity;BMP_temperature;BMP_pressure;BME280_temperature;BME280_humidity;BME280_pressure;Samples;Min_cycle;Max_cycle;Signal;HPM_P1;HPM_P2
2023/08/29 00:01:44;;;;;;;4.80;4.50;;;;;;;26.19;49.81;98681.88;4999403;28;20571;-62
2023/08/29 00:04:10;;;;;;;6.40;4.60;;;;;;;26.21;49.74;98682.38;5012395;28;20258;-63
2023/08/29 00:06:37;;;;;;;5.97;4.50;;;;;;;26.24;50.02;98684.44;5013833;28;20217;-62
2023/08/29 00:09:04;;;;;;;5.33;4.70;;;;;;;26.28;49.51;98690.84;5031885;28;20193;-63
2023/08/29 00:11:32;;;;;;;6.27;4.40;;;;;;;26.32;49.74;98691.81;5025170;28;20273;-63
2023/08/29 00:13:59;;;;;;;7.30;4.20;;;;;;;26.40;49.67;98683.69;5012389;28;20268;-62
2023/08/29 00:16:26;;;;;;;4.87;4.47;;;;;;;26.44;50.13;98692.00;5010804;28;20696;-63
2023/08/29 00:18:53;;;;;;;5.00;4.50;;;;;;;26.49;49.81;98691.84;5012140;28;20285;-63
2023/08/29 00:21:19;;;;;;;5.77;5.27;;;;;;;26.52;50.11;98697.47;5008254;28;20670;-63
2023/08/29 00:23:47;;;;;;;4.67;4.33;;;;;;;26.54;49.95;98692.50;4992166;28;20643;-63
2023/08/29 00:26:14;;;;;;;8.40;3.83;;;;;;;26.59;50.21;98706.03;4992124;28;20706;-64
2023/08/29 00:28:42;;;;;;;4.93;4.60;;;;;;;26.65;50.26;98707.47;4992261;28;20735;-63
2023/08/29 00:31:08;;;;;;;5.30;4.90;;;;;;;26.69;50.14;98699.44;4992383;28;20261;-63
2023/08/29 00:33:35;;;;;;;5.73;5.17;;;;;;;26.70;50.06;98703.78;5011514;28;20217;-63
2023/08/29 00:36:02;;;;;;;5.60;5.20;;;;;;;26.72;49.78;98704.25;5011737;28;20198;-61
2023/08/29 00:38:28;;;;;;;9.03;8.13;;;;;;;26.66;49.12;98698.16;5011653;28;20194;-62
2023/08/29 00:40:55;;;;;;;9.70;8.87;;;;;;;26.58;48.67;98707.13;5011572;28;20621;-63
2023/08/29 00:43:21;;;;;;;10.93;9.20;;;;;;;26.55;48.61;98709.66;4992167;28;20252;-63
2023/08/29 00:45:50;;;;;;;9.40;8.43;;;;;;;26.53;48.88;98703.72;4992234;28;20226;-62
2023/08/29 00:48:17;;;;;;;8.43;7.57;;;;;;;26.52;49.07;98708.38;4992509;28;20230;-62
2023/08/29 00:50:44;;;;;;;7.93;7.17;;;;;;;26.49;48.93;98703.56;4993012;28;20195;-62
2023/08/29 00:53:11;;;;;;;10.87;9.27;;;;;;;26.49;48.78;98703.56;4991687;28;20201;-62
2023/08/29 00:55:38;;;;;;;13.93;10.47;;;;;;;26.46;49.25;98706.91;4992446;28;20194;-61
2023/08/29 00:58:05;;;;;;;10.23;9.37;;;;;;;26.47;48.92;98705.00;4992150;28;20226;-62
2023/08/29 01:00:33;;;;;;;11.73;10.17;;;;;;;26.42;50.12;98705.94;5011667;28;20248;-62
2023/08/29 01:03:01;;;;;;;11.70;10.53;;;;;;;26.34;49.64;98700.50;5011158;28;20547;-62
2023/08/29 01:05:29;;;;;;;11.17;10.23;;;;;;;26.31;49.76;98699.22;5011240;28;20252;-62
2023/08/29 01:07:58;;;;;;;11.57;10.57;;;;;;;26.30;49.69;98700.31;5022715;28;20311;-63
2023/08/29 01:10:35;;;;;;;11.87;10.47;;;;;;;26.26;50.03;98693.09;5010602;28;20284;-62
2023/08/29 01:13:10;;;;;;;12.10;11.00;;;;;;;26.17;49.83;98689.56;5010991;28;20182;-63
2023/08/29 01:15:39;;;;;;;11.67;10.67;;;;;;;26.16;50.86;98696.91;5011291;28;20256;-62
2023/08/29 01:18:11;;;;;;;10.63;9.73;;;;;;;26.18;50.95;98685.72;4996258;28;20203;-62
2023/08/29 01:20:39;;;;;;;11.90;10.70;;;;;;;26.20;50.57;98692.44;4991601;28;20191;-63
2023/08/29 01:23:11;;;;;;;12.70;11.33;;;;;;;26.14;49.90;98684.75;4991639;28;20652;-62
2023/08/29 01:25:43;;;;;;;11.93;10.87;;;;;;;26.12;50.14;98686.97;4990304;28;20561;-62
2023/08/29 01:28:12;;;;;;;12.50;10.63;;;;;;;26.04;50.58;98679.59;5004398;28;20263;-62
2023/08/29 01:30:39;;;;;;;15.23;11.23;;;;;;;26.05;50.52;98681.19;5011348;28;20200;-62
2023/08/29 01:33:07;;;;;;;12.20;10.97;;;;;;;25.97;51.00;98676.53;5010991;28;20771;-62
2023/08/29 01:35:34;;;;;;;14.77;11.20;;;;;;;25.91;51.52;98669.59;5010935;28;20681;-62
2023/08/29 01:38:01;;;;;;;12.23;11.17;;;;;;;25.94;51.71;98674.44;4997587;28;20297;-62
2023/08/29 01:40:27;;;;;;;13.10;10.50;;;;;;;25.96;51.44;98672.22;4991756;28;20260;-61
2023/08/29 01:42:54;;;;;;;13.30;11.07;;;;;;;25.96;52.01;98669.50;4991356;28;20198;-62
2023/08/29 01:45:22;;;;;;;11.53;10.37;;;;;;;25.97;51.83;98668.38;4991710;28;20265;-61
2023/08/29 01:47:48;;;;;;;13.47;11.10;;;;;;;25.99;52.04;98674.28;4999349;28;20221;-61
2023/08/29 01:50:18;;;;;;;12.43;10.00;;;;;;;26.05;51.71;98670.31;5011037;28;20272;-62
2023/08/29 01:52:44;;;;;;;10.77;9.77;;;;;;;26.12;51.70;98676.06;5010809;28;20352;-62
2023/08/29 01:55:11;;;;;;;12.07;10.67;;;;;;;26.11;50.88;98672.56;5010808;28;20190;-62
2023/08/29 01:57:39;;;;;;;12.00;10.87;;;;;;;26.12;50.72;98665.19;5002768;28;20748;-62
2023/08/29 02:00:07;;;;;;;11.13;9.87;;;;;;;25.97;50.91;98662.94;4990977;28;20198;-62
2023/08/29 02:02:35;;;;;;;13.17;9.97;;;;;;;25.70;51.93;98654.94;4991385;28;20195;-62
2023/08/29 02:05:02;;;;;;;13.60;10.53;;;;;;;25.67;52.55;98658.28;4991072;28;20257;-63
2023/08/29 02:07:28;;;;;;;11.90;9.63;;;;;;;25.74;51.49;98654.00;5018591;28;20297;-62
2023/08/29 02:09:55;;;;;;;10.40;9.47;;;;;;;25.73;52.49;98657.03;5030513;28;20259;-61
2023/08/29 02:12:22;;;;;;;9.90;8.97;;;;;;;25.69;52.25;98656.06;5029941;28;20197;-61
2023/08/29 02:14:49;;;;;;;10.33;9.33;;;;;;;25.67;52.06;98663.72;5030208;28;20198;-62
2023/08/29 02:17:15;;;;;;;10.57;9.67;;;;;;;25.65;52.30;98660.53;5010564;28;20277;-62
2023/08/29 02:19:43;;;;;;;9.77;8.77;;;;;;;25.64;51.92;98664.38;5010883;28;20197;-61
2023/08/29 02:22:10;;;;;;;9.53;8.73;;;;;;;25.59;52.34;98656.34;5010642;28;20194;-62
2023/08/29 02:24:36;;;;;;;9.13;8.33;;;;;;;25.55;52.03;98658.09;5010310;28;20621;-62
2023/08/29 02:27:04;;;;;;;8.43;6.20;;;;;;;25.52;51.97;98656.78;4994172;28;20710;-62
2023/08/29 02:29:31;;;;;;;7.20;6.30;;;;;;;25.47;51.88;98647.97;4990641;28;20202;-61
2023/08/29 02:31:57;;;;;;;7.10;6.50;;;;;;;25.40;52.34;98647.63;4990275;28;20191;-61
2023/08/29 02:34:24;;;;;;;7.23;5.87;;;;;;;25.38;52.38;98660.72;4990634;28;20183;-61
2023/08/29 02:36:53;;;;;;;7.93;6.40;;;;;;;25.33;52.96;98658.13;5003269;28;20198;-62
2023/08/29 02:39:20;;;;;;;6.33;5.77;;;;;;;25.24;52.57;98654.53;5011166;28;20261;-61
2023/08/29 02:41:47;;;;;;;8.57;4.90;;;;;;;25.25;52.77;98656.13;5014299;28;20208;-62
2023/08/29 02:44:14;;;;;;;5.57;5.00;;;;;;;25.12;52.63;98651.59;5013921;28;20198;-62
2023/08/29 02:46:41;;;;;;;5.57;5.03;;;;;;;25.08;53.15;98642.44;5001585;28;20650;-61
2023/08/29 02:49:07;;;;;;;7.90;5.77;;;;;;;25.04;53.01;98648.50;4994002;28;20272;-61
2023/08/29 02:51:34;;;;;;;5.53;5.17;;;;;;;24.97;53.00;98633.75;4993945;28;20763;-61
2023/08/29 02:54:02;;;;;;;5.60;5.20;;;;;;;24.91;53.56;98643.94;4994100;28;20198;-61
2023/08/29 02:56:29;;;;;;;5.87;5.47;;;;;;;24.86;53.64;98644.06;5003355;28;20284;-61
2023/08/29 02:58:56;;;;;;;5.13;4.77;;;;;;;24.79;53.85;98646.41;5014109;28;20202;-62
2023/08/29 03:01:22;;;;;;;6.93;4.90;;;;;;;24.75;53.63;98648.13;5013536;28;20252;-62
2023/08/29 03:03:49;;;;;;;5.57;5.07;;;;;;;24.74;54.31;98637.56;5010846;28;20657;-62
2023/08/29 03:06:16;;;;;;;5.60;4.80;;;;;;;24.68;54.06;98642.34;4993608;28;20201;-62
2023/08/29 03:08:43;;;;;;;8.60;8.00;;;;;;;24.64;54.47;98635.91;5031267;28;20201;-62
2023/08/29 03:11:11;;;;;;;12.33;5.80;;;;;;;24.60;54.34;98629.50;5032697;28;20189;-62
2023/08/29 03:13:38;;;;;;;6.13;4.60;;;;;;;24.57;54.78;98640.13;5017508;28;20197;-62
2023/08/29 03:16:11;;;;;;;9.17;8.27;;;;;;;24.55;54.51;98643.13;5013059;28;20194;-62
2023/08/29 03:18:38;;;;;;;11.40;7.60;;;;;;;24.55;55.45;98637.69;5013113;28;20317;-62
2023/08/29 03:21:06;;;;;;;5.80;5.10;;;;;;;24.56;55.36;98650.19;5013141;28;20629;-62
2023/08/29 03:23:33;;;;;;;5.43;4.93;;;;;;;24.58;55.51;98637.09;5000174;28;20218;-62
2023/08/29 03:26:03;;;;;;;5.93;4.90;;;;;;;24.60;55.15;98637.66;4992962;28;20659;-62
2023/08/29 03:28:31;;;;;;;5.53;5.03;;;;;;;24.65;55.26;98648.38;4993322;28;20292;-62
2023/08/29 03:30:58;;;;;;;7.30;5.17;;;;;;;24.67;55.35;98645.34;4993118;28;20625;-62
2023/08/29 03:33:25;;;;;;;7.97;5.30;;;;;;;24.68;56.08;98645.06;4994360;28;20268;-61
2023/08/29 03:35:58;;;;;;;7.07;6.37;;;;;;;24.65;55.52;98653.81;5007254;28;20190;-62
2023/08/29 03:38:25;;;;;;;7.90;4.73;;;;;;;24.64;56.27;98645.97;5013130;28;20280;-61
2023/08/29 03:40:56;;;;;;;5.33;4.83;;;;;;;24.69;56.30;98643.94;5012553;28;20194;-62
2023/08/29 03:43:23;;;;;;;8.63;5.50;;;;;;;24.77;56.19;98645.09;4998349;28;20214;-62
2023/08/29 03:45:56;;;;;;;7.00;4.83;;;;;;;24.85;55.55;98647.91;4992937;28;20264;-62
2023/08/29 03:48:23;;;;;;;5.50;5.10;;;;;;;24.92;55.44;98650.97;4998759;28;20245;-62
2023/08/29 03:50:50;;;;;;;5.93;4.77;;;;;;;24.99;55.58;98645.09;5012293;28;20256;-61
2023/08/29 03:53:17;;;;;;;10.07;4.87;;;;;;;25.08;55.57;98650.59;5011662;28;20194;-62
2023/08/29 03:55:44;;;;;;;6.73;4.30;;;;;;;25.15;55.11;98640.09;5012621;28;20256;-62
2023/08/29 03:58:10;;;;;;;7.33;4.80;;;;;;;25.23;54.51;98633.91;5012831;28;20283;-63
2023/08/29 04:00:37;;;;;;;9.37;5.60;;;;;;;25.30;54.45;98628.84;5012689;28;20201;-62
2023/08/29 04:03:06;;;;;;;6.37;4.60;;;;;;;25.29;54.56;98624.53;5000960;28;20195;-62
2023/08/29 04:05:34;;;;;;;6.37;5.10;;;;;;;25.34;53.85;98625.19;4992799;28;20282;-62
2023/08/29 04:08:01;;;;;;;5.90;4.47;;;;;;;25.51;53.88;98627.19;5018844;28;20219;-62
2023/08/29 04:10:28;;;;;;;7.13;4.40;;;;;;;25.77;53.40;98630.81;5031725;28;20259;-61
2023/08/29 04:12:54;;;;;;;13.87;5.63;;;;;;;26.11;52.36;98637.19;5020389;28;20201;-62
2023/08/29 04:15:23;;;;;;;12.90;8.13;;;;;;;26.42;50.60;98639.78;5011886;28;20665;-62
2023/08/29 04:17:50;;;;;;;13.50;7.57;;;;;;;26.68;49.29;98640.63;5012317;28;20281;-63
2023/08/29 04:20:18;;;;;;;16.37;8.60;;;;;;;26.92;47.14;98640.91;5009987;28;20198;-63
2023/08/29 04:22:46;;;;;;;22.57;11.20;;;;;;;27.25;45.74;98650.19;4992396;28;20194;-62
2023/08/29 04:25:13;;;;;;;15.30;10.07;;;;;;;27.34;44.87;98656.41;4992346;28;20821;-63
2023/08/29 04:27:41;;;;;;;13.03;10.30;;;;;;;27.18;44.67;98664.28;4992725;28;20223;-63
2023/08/29 04:30:08;;;;;;;14.67;10.40;;;;;;;26.99;45.62;98663.06;4991984;28;20197;-63
2023/08/29 04:32:36;;;;;;;14.93;10.20;;;;;;;27.04;45.00;98657.41;4991265;28;20222;-62
2023/08/29 04:35:05;;;;;;;14.37;11.07;;;;;;;27.21;44.40;98649.25;4991789;28;20197;-62
2023/08/29 04:37:33;;;;;;;15.47;11.37;;;;;;;27.34;44.28;98648.22;4991661;28;20651;-63
2023/08/29 04:40:01;;;;;;;9.50;8.50;;;;;;;27.68;45.04;98648.13;4991983;28;20203;-63
2023/08/29 04:42:27;;;;;;;12.70;10.03;;;;;;;28.24;43.42;98639.50;5009643;28;20198;-63
2023/08/29 04:44:54;;;;;;;20.83;9.97;;;;;;;28.76;42.32;98647.00;5011118;28;20545;-63
2023/08/29 04:47:21;;;;;;;9.83;8.37;;;;;;;29.12;41.13;98649.13;5011512;28;20291;-63
2023/08/29 04:49:48;;;;;;;12.13;8.87;;;;;;;29.42;40.27;98647.81;5011398;28;20260;-63
2023/08/29 04:52:15;;;;;;;14.53;9.33;;;;;;;29.65;39.60;98659.97;4994273;28;20261;-63
2023/08/29 04:54:43;;;;;;;44.90;9.87;;;;;;;29.69;39.22;98658.16;4991800;28;20206;-63
2023/08/29 04:57:09;;;;;;;13.23;9.10;;;;;;;29.54;39.42;98666.19;4991196;28;20199;-63
2023/08/29 04:59:36;;;;;;;11.60;8.40;;;;;;;29.44;40.38;98656.50;4991609;28;20556;-63
2023/08/29 05:02:03;;;;;;;11.13;7.30;;;;;;;29.34;40.76;98662.38;5005473;28;20574;-62
2023/08/29 05:04:29;;;;;;;11.03;6.90;;;;;;;29.27;41.13;98662.13;5011286;28;20194;-62
2023/08/29 05:06:56;;;;;;;11.27;6.60;;;;;;;29.55;40.64;98667.81;5014989;28;20190;-63
2023/08/29 05:09:24;;;;;;;15.00;7.23;;;;;;;29.60;40.10;98665.66;5022358;28;20648;-63
2023/08/29 05:11:52;;;;;;;14.57;6.37;;;;;;;29.73;40.07;98670.03;5011009;28;20204;-63
2023/08/29 05:14:18;;;;;;;8.40;6.00;;;;;;;30.09;39.53;98659.06;5005496;28;20959;-63
2023/08/29 05:16:45;;;;;;;6.73;6.07;;;;;;;30.21;38.91;98661.03;4990967;28;20194;-62
2023/08/29 05:19:12;;;;;;;10.30;6.73;;;;;;;30.35;38.53;98662.28;4991241;28;20194;-63
2023/08/29 05:21:38;;;;;;;23.20;6.63;;;;;;;30.51;39.25;98656.88;5004869;28;20372;-63
2023/08/29 05:24:06;;;;;;;9.50;6.20;;;;;;;30.94;38.08;98660.53;5008374;28;20186;-63
2023/08/29 05:26:33;;;;;;;7.40;5.60;;;;;;;31.32;36.99;98660.81;5008294;28;20738;-64
2023/08/29 05:29:01;;;;;;;8.87;6.40;;;;;;;31.68;35.82;98663.34;5009320;28;20705;-64
2023/08/29 05:31:29;;;;;;;9.70;6.47;;;;;;;31.97;35.70;98671.16;5005012;28;20260;-64
2023/08/29 05:33:56;;;;;;;9.63;6.13;;;;;;;32.37;34.90;98680.00;5017137;28;20340;-64
2023/08/29 05:36:23;;;;;;;9.00;6.20;;;;;;;32.72;34.23;98672.56;5014002;28;20750;-63
2023/08/29 05:38:49;;;;;;;9.90;5.80;;;;;;;33.20;33.07;98669.22;5023499;28;20193;-64
2023/08/29 05:41:16;;;;;;;8.73;5.57;;;;;;;33.44;32.21;98642.53;5008523;28;20213;-64
2023/08/29 05:43:43;;;;;;;7.20;6.03;;;;;;;33.92;31.62;98650.88;5009262;28;20252;-63
2023/08/29 05:46:11;;;;;;;6.05;5.35;;;;;;;34.25;30.92;98652.97;5008109;28;20207;-64
2023/08/29 05:48:37;;;;;;;11.73;6.43;;;;;;;34.44;30.85;98661.94;5017204;28;20289;-63
2023/08/29 05:51:04;;;;;;;8.02;5.85;;;;;;;34.55;30.47;98665.66;5017653;28;20190;-63
2023/08/29 05:53:31;;;;;;;6.47;5.18;;;;;;;34.63;30.40;98666.53;5017979;28;20186;-63
2023/08/29 05:55:58;;;;;;;13.38;5.45;;;;;;;34.89;29.95;98672.03;5013991;28;20198;-63
2023/08/29 05:58:25;;;;;;;9.15;5.97;;;;;;;34.81;29.75;98668.41;5009948;28;20261;-64
2023/08/29 06:00:52;;;;;;;8.55;5.80;;;;;;;34.45;30.64;98654.47;5009635;28;20198;-64
2023/08/29 06:03:20;;;;;;;22.02;6.68;;;;;;;34.97;30.23;98662.66;4992201;28;20551;-64
2023/08/29 06:05:49;;;;;;;9.93;6.40;;;;;;;35.33;29.15;98659.97;5005391;28;20835;-64
2023/08/29 06:08:16;;;;;;;9.05;6.47;;;;;;;34.80;30.53;98664.06;5017561;28;20217;-65
2023/08/29 06:10:43;;;;;;;11.30;6.22;;;;;;;34.98;29.85;98658.75;5016870;28;20202;-65
2023/08/29 06:13:10;;;;;;;13.10;6.07;;;;;;;34.76;30.46;98660.41;5019080;28;20200;-64
2023/08/29 06:15:36;;;;;;;8.05;5.78;;;;;;;34.85;29.83;98663.72;5021593;28;20245;-64
2023/08/29 06:18:03;;;;;;;8.93;6.03;;;;;;;34.58;29.87;98661.34;5015028;28;20198;-65
2023/08/29 06:20:32;;;;;;;8.77;6.43;;;;;;;34.64;30.18;98652.38;4995832;28;20190;-64
2023/08/29 06:22:59;;;;;;;11.45;5.97;;;;;;;34.56;30.26;98655.41;5023159;28;20220;-64
2023/08/29 06:25:27;;;;;;;12.40;7.40;;;;;;;34.28;30.59;98653.00;5022703;28;20251;-64
2023/08/29 06:27:54;;;;;;;12.25;7.07;;;;;;;34.25;30.70;98650.22;5023358;28;20221;-64
2023/08/29 06:30:21;;;;;;;8.30;6.20;;;;;;;34.62;30.28;98640.91;5021843;28;20222;-64
2023/08/29 06:32:47;;;;;;;10.50;6.60;;;;;;;34.73;30.39;98638.28;5026952;28;20244;-63
2023/08/29 06:35:14;;;;;;;13.88;7.43;;;;;;;34.65;30.07;98637.41;5019985;28;20264;-64
2023/08/29 06:37:42;;;;;;;14.05;7.35;;;;;;;34.28;30.99;98636.47;5009817;28;20262;-65
2023/08/29 06:40:10;;;;;;;10.00;6.45;;;;;;;34.27;30.80;98642.34;5012591;28;20272;-64
2023/08/29 06:42:38;;;;;;;7.85;7.05;;;;;;;34.24;31.27;98634.81;5006903;28;20467;-65
2023/08/29 06:45:06;;;;;;;13.15;7.10;;;;;;;34.17;31.11;98645.75;5009419;28;20661;-64
2023/08/29 06:47:33;;;;;;;39.90;8.98;;;;;;;33.76;31.67;98636.41;5016129;28;20324;-65
2023/08/29 06:49:59;;;;;;;10.90;7.03;;;;;;;33.55;32.44;98625.03;5009706;28;20252;-64
2023/08/29 06:52:27;;;;;;;11.13;7.53;;;;;;;33.55;32.24;98624.25;5014155;28;20198;-64
2023/08/29 06:54:55;;;;;;;8.23;6.97;;;;;;;33.63;31.60;98637.00;5013312;28;20694;-64
2023/08/29 06:57:21;;;;;;;11.88;7.35;;;;;;;33.53;32.02;98626.56;5010385;28;20229;-65
2023/08/29 06:59:48;;;;;;;9.30;6.50;;;;;;;33.57;32.13;98636.50;5013467;28;20202;-64
2023/08/29 07:02:15;;;;;;;15.88;7.30;;;;;;;33.82;31.85;98628.66;5001831;28;20256;-64
2023/08/29 07:04:42;;;;;;;9.00;6.13;;;;;;;33.91;31.75;98620.91;5001995;28;20694;-64
2023/08/29 07:07:08;;;;;;;15.40;7.68;;;;;;;34.03;31.79;98618.78;5006935;28;20190;-64
2023/08/29 07:09:35;;;;;;;20.80;8.00;;;;;;;34.13;31.32;98611.81;4994377;28;20277;-64
2023/08/29 07:12:04;;;;;;;11.13;6.90;;;;;;;34.02;31.43;98619.94;4992044;28;20191;-65
2023/08/29 07:14:31;;;;;;;10.77;6.85;;;;;;;34.24;31.23;98621.03;4993721;28;20199;-65
2023/08/29 07:16:57;;;;;;;22.25;7.47;;;;;;;34.43;30.30;98627.25;5009176;28;20240;-64
2023/08/29 07:19:25;;;;;;;13.23;7.70;;;;;;;34.36;30.69;98632.69;4977721;28;20203;-64
2023/08/29 07:21:52;;;;;;;10.68;8.00;;;;;;;34.36;30.79;98618.88;5011516;28;20276;-64
2023/08/29 07:24:18;;;;;;;10.27;7.68;;;;;;;34.33;31.03;98621.59;5009516;28;20678;-64
2023/08/29 07:26:45;;;;;;;9.15;7.93;;;;;;;34.14;31.50;98616.16;5009494;28;20190;-64
2023/08/29 07:29:13;;;;;;;58.67;11.68;;;;;;;33.99;31.29;98622.63;5008809;28;20214;-64
2023/08/29 07:31:40;;;;;;;8.90;7.93;;;;;;;33.49;31.37;98620.19;4996113;28;20265;-65
2023/08/29 07:34:07;;;;;;;16.90;8.63;;;;;;;32.91;33.10;98625.00;4994806;28;20273;-64
2023/08/29 07:36:33;;;;;;;14.82;8.38;;;;;;;32.94;33.45;98616.81;4999442;28;20248;-63
2023/08/29 07:39:00;;;;;;;15.38;8.48;;;;;;;33.32;32.87;98618.75;5013651;28;20662;-64
2023/08/29 07:41:27;;;;;;;15.43;8.35;;;;;;;33.80;32.02;98622.72;5013803;28;20194;-64
2023/08/29 07:43:53;;;;;;;11.63;8.63;;;;;;;34.12;31.55;98618.50;5022320;28;20746;-63
2023/08/29 07:46:21;;;;;;;12.25;8.45;;;;;;;34.46;30.56;98625.72;5017383;28;20198;-63
2023/08/29 07:48:49;;;;;;;17.52;9.23;;;;;;;34.64;29.87;98627.53;5016564;28;20218;-63
2023/08/29 07:51:16;;;;;;;16.83;11.60;;;;;;;34.76;29.49;98619.03;5023140;28;20213;-66
2023/08/29 07:53:43;;;;;;;12.27;10.45;;;;;;;34.96;29.39;98616.91;5028057;28;20569;-64
2023/08/29 07:56:09;;;;;;;15.20;9.80;;;;;;;35.07;29.56;98612.31;5007024;28;20260;-63
2023/08/29 07:58:36;;;;;;;18.23;9.93;;;;;;;35.29;29.00;98611.38;5010997;28;20210;-63
2023/08/29 08:01:03;;;;;;;15.10;9.32;;;;;;;35.52;28.96;98606.47;5005157;28;20199;-63
2023/08/29 08:03:31;;;;;;;12.95;9.75;;;;;;;35.64;28.75;98608.94;5002854;28;20669;-62
2023/08/29 08:05:58;;;;;;;14.23;9.85;;;;;;;35.64;28.37;98608.94;5012029;28;20194;-63
2023/08/29 08:08:25;;;;;;;14.02;9.20;;;;;;;35.76;28.61;98605.91;5028464;28;20221;-63
2023/08/29 08:10:51;;;;;;;19.83;12.38;;;;;;;35.91;28.10;98600.09;5012500;28;20202;-66
2023/08/29 08:13:18;;;;;;;16.70;11.32;;;;;;;36.10;27.82;98612.88;4996561;28;20874;-63
2023/08/29 08:15:45;;;;;;;11.25;10.20;;;;;;;36.28;27.23;98608.25;4992296;28;20253;-64
2023/08/29 08:18:11;;;;;;;10.68;9.70;;;;;;;36.40;26.86;98596.88;4989827;28;20674;-62
2023/08/29 08:20:40;;;;;;;14.05;9.60;;;;;;;36.35;28.41;98578.69;4989196;28;20195;-62
2023/08/29 08:23:06;;;;;;;13.95;10.40;;;;;;;36.27;27.51;98577.06;5003270;28;20198;-62
2023/08/29 08:25:33;;;;;;;16.85;9.15;;;;;;;36.13;27.27;98582.47;4996157;28;20622;-63
2023/08/29 08:28:00;;;;;;;10.57;9.57;;;;;;;36.20;27.32;98573.41;4990245;28;20250;-63
2023/08/29 08:30:27;;;;;;;15.35;8.88;;;;;;;36.08;27.13;98557.13;4991699;28;20199;-62
2023/08/29 08:32:54;;;;;;;14.35;10.60;;;;;;;35.81;27.58;98547.50;4992646;28;20285;-62
2023/08/29 08:35:21;;;;;;;13.40;11.50;;;;;;;35.36;28.76;98542.38;4990416;28;20198;-63
2023/08/29 08:37:49;;;;;;;13.98;10.45;;;;;;;35.38;28.34;98542.78;4992352;28;20198;-63
2023/08/29 08:40:16;;;;;;;11.07;9.90;;;;;;;35.65;28.88;98561.59;4994331;28;20203;-63
2023/08/29 08:42:44;;;;;;;13.77;9.57;;;;;;;35.80;28.92;98568.03;4992490;28;20261;-63
2023/08/29 08:45:11;;;;;;;10.60;9.63;;;;;;;35.89;27.94;98566.50;4991836;28;20194;-64
2023/08/29 08:47:39;;;;;;;14.13;10.20;;;;;;;36.06;27.63;98559.50;4991594;28;20194;-66
2023/08/29 08:50:08;;;;;;;10.77;9.73;;;;;;;36.25;27.97;98550.97;5001657;28;20221;-63
2023/08/29 08:52:35;;;;;;;18.85;12.25;;;;;;;36.44;27.50;98548.66;5010893;28;20230;-63
2023/08/29 08:55:04;;;;;;;18.92;12.38;;;;;;;36.64;26.91;98540.81;5006932;28;20619;-66
2023/08/29 08:57:32;;;;;;;15.80;14.35;;;;;;;36.61;26.40;98539.63;5005769;28;20197;-63
2023/08/29 08:59:59;;;;;;;20.27;14.57;;;;;;;36.68;26.34;98544.44;4990110;28;20202;-64
2023/08/29 09:02:27;;;;;;;22.27;15.25;;;;;;;36.77;25.98;98536.53;4991124;28;20194;-65
2023/08/29 09:04:54;;;;;;;18.10;14.93;;;;;;;36.93;26.13;98534.19;5009624;28;20797;-61
2023/08/29 09:07:21;;;;;;;20.48;16.30;;;;;;;37.03;25.85;98533.44;5017483;28;20220;-60
2023/08/29 09:10:09;;;;;;;18.45;16.40;;;;;;;37.09;26.04;98534.63;5016664;28;20625;-64
2023/08/29 09:12:36;;;;;;;19.50;17.35;;;;;;;37.14;25.75;98529.53;4989517;28;20341;-61
2023/08/29 09:15:05;;;;;;;19.42;17.40;;;;;;;36.79;26.39;98526.66;4990050;28;20198;-62
2023/08/29 09:17:32;;;;;;;19.67;17.60;;;;;;;36.77;26.11;98511.63;4991900;28;20681;-62
2023/08/29 09:19:59;;;;;;;21.63;17.58;;;;;;;36.43;26.31;98507.53;5004847;28;20649;-61
2023/08/29 09:22:26;;;;;;;19.20;17.27;;;;;;;36.53;26.77;98504.81;5010875;28;20194;-62
2023/08/29 09:24:53;;;;;;;20.23;18.13;;;;;;;36.77;27.01;98506.09;5008310;28;20190;-61
2023/08/29 09:27:21;;;;;;;22.75;18.40;;;;;;;36.92;26.06;98497.44;5009183;28;20198;-62
2023/08/29 09:29:48;;;;;;;22.88;18.80;;;;;;;37.11;25.79;98488.72;5007739;28;20226;-61
2023/08/29 09:32:16;;;;;;;20.92;18.77;;;;;;;37.19;26.47;98489.53;5011418;28;20317;-61
2023/08/29 09:34:43;;;;;;;18.35;16.48;;;;;;;37.04;26.37;98479.63;5008743;28;20190;-62
2023/08/29 09:37:12;;;;;;;19.02;16.55;;;;;;;37.25;25.85;98474.13;5000862;28;20202;-61
2023/08/29 09:39:39;;;;;;;19.25;17.17;;;;;;;37.32;25.82;98474.13;4991631;28;20241;-62
2023/08/29 09:42:07;;;;;;;19.40;16.85;;;;;;;37.45;25.55;98474.50;4991610;28;20245;-61
2023/08/29 09:44:37;;;;;;;17.70;15.98;;;;;;;37.40;25.78;98461.84;4990670;28;20259;-62
2023/08/29 09:47:05;;;;;;;18.00;16.30;;;;;;;37.49;26.23;98458.66;4990049;28;20620;-61
2023/08/29 09:49:42;;;;;;;18.92;16.88;;;;;;;37.28;26.01;98451.16;4992339;28;20228;-61
2023/08/29 09:52:10;;;;;;;23.83;16.35;;;;;;;37.39;26.10;98451.94;4993490;28;20286;-62
2023/08/29 09:54:45;;;;;;;17.85;14.75;;;;;;;37.38;26.05;98453.13;4992869;28;20194;-60
2023/08/29 09:57:14;;;;;;;18.42;15.50;;;;;;;37.35;26.37;98453.91;4993271;28;20213;-60
2023/08/29 09:59:44;;;;;;;18.33;14.95;;;;;;;37.34;26.06;98446.78;4993163;28;20197;-60
2023/08/29 10:02:12;;;;;;;17.80;15.95;;;;;;;37.15;26.46;98441.69;4992689;28;20708;-61
2023/08/29 10:04:45;;;;;;;14.63;13.20;;;;;;;37.19;25.96;98436.91;4994119;28;20191;-61
2023/08/29 10:07:16;;;;;;;13.15;10.43;;;;;;;37.03;26.55;98431.75;5000369;28;20235;-61
2023/08/29 10:09:42;;;;;;;12.05;9.15;;;;;;;36.95;26.50;98424.63;5016887;28;20214;-62
2023/08/29 10:12:09;;;;;;;10.02;9.10;;;;;;;36.86;26.76;98418.69;5024770;28;20189;-61
2023/08/29 10:14:37;;;;;;;9.70;8.27;;;;;;;36.79;27.04;98409.59;5021374;28;20264;-60
2023/08/29 10:17:06;;;;;;;7.45;6.75;;;;;;;36.65;26.58;98399.25;5019473;28;20240;-62
2023/08/29 10:19:34;;;;;;;7.95;7.15;;;;;;;36.51;26.91;98404.78;5021687;28;20198;-63
2023/08/29 10:22:04;;;;;;;7.80;6.85;;;;;;;36.47;27.13;98386.59;5019407;28;20185;-62
2023/08/29 10:24:32;;;;;;;9.82;6.35;;;;;;;36.49;26.97;98384.22;5021704;28;20272;-60
2023/08/29 10:27:00;;;;;;;11.50;6.68;;;;;;;36.63;27.30;98378.69;5025071;28;20243;-60
2023/08/29 10:29:26;;;;;;;6.60;5.72;;;;;;;36.78;26.81;98372.00;5017612;28;20241;-61
2023/08/29 10:31:54;;;;;;;14.18;6.78;;;;;;;36.65;27.30;98370.78;5024831;28;20256;-61
2023/08/29 10:34:24;;;;;;;10.95;5.60;;;;;;;36.60;27.01;98363.69;5023759;28;20237;-60
2023/08/29 10:36:51;;;;;;;6.68;5.10;;;;;;;36.76;27.14;98355.00;5026165;28;20661;-60
2023/08/29 10:39:17;;;;;;;5.82;4.97;;;;;;;36.95;26.95;98358.16;5027723;28;20240;-62
2023/08/29 10:41:45;;;;;;;8.82;5.20;;;;;;;37.28;26.51;98357.72;5006365;28;20194;-60
2023/08/29 10:44:24;;;;;;;6.05;5.65;;;;;;;37.41;26.26;98341.47;5007247;28;20190;-61
2023/08/29 10:46:54;;;;;;;9.35;5.65;;;;;;;37.55;26.86;98346.97;4993757;28;20646;-60
2023/08/29 10:49:23;;;;;;;7.10;6.00;;;;;;;37.24;27.70;98347.88;4994997;28;20222;-61
2023/08/29 10:52:08;;;;;;;13.48;6.30;;;;;;;37.06;26.99;98347.84;4994809;28;20214;-60
2023/08/29 10:54:34;;;;;;;9.07;6.57;;;;;;;37.27;27.56;98341.50;4999781;28;20190;-60
2023/08/29 10:57:01;;;;;;;7.00;6.10;;;;;;;37.27;27.08;98341.50;5018425;28;20193;-59
2023/08/29 10:59:29;;;;;;;14.30;5.75;;;;;;;37.28;27.03;98337.56;5022011;28;20237;-61
2023/08/29 11:02:23;;;;;;;9.48;6.65;;;;;;;37.44;26.88;98335.16;5019888;28;20580;-60
2023/08/29 11:04:53;;;;;;;8.35;6.30;;;;;;;37.67;26.25;98338.25;5023035;28;20187;-60
2023/08/29 11:07:25;;;;;;;18.50;7.43;;;;;;;37.85;26.68;98333.41;5018172;28;20679;-61
2023/08/29 11:10:16;;;;;;;14.30;7.18;;;;;;;37.93;26.78;98329.41;5009155;28;20242;-60
2023/08/29 11:13:02;;;;;;;8.60;5.80;;;;;;;38.01;26.24;98328.19;4993400;28;20221;-62
2023/08/29 11:16:08;;;;;;;8.98;5.20;;;;;;;38.07;26.19;98311.91;4993029;28;20253;-62
2023/08/29 11:18:35;;;;;;;8.90;5.47;;;;;;;38.11;26.36;98312.69;5011247;28;20205;-59
2023/08/29 11:21:10;;;;;;;10.57;5.43;;;;;;;37.89;26.04;98316.75;5018251;28;20260;-59
2023/08/29 11:23:39;;;;;;;7.05;5.00;;;;;;;37.54;26.29;98309.34;5025977;28;20268;-59
2023/08/29 11:26:06;;;;;;;7.68;6.13;;;;;;;37.36;26.89;98316.97;5031171;28;20592;-61
2023/08/29 11:28:34;;;;;;;18.92;7.93;;;;;;;37.04;27.32;98305.13;5031340;28;20687;-62
2023/08/29 11:31:01;;;;;;;10.65;7.47;;;;;;;36.80;27.46;98305.97;5030950;28;20263;-62